Time;durP1;ratioP1;P1;durP2;ratioP2;P2;SDS_P1;SDS_P2;PMS_P1;PMS_P2;Temp;Humidity;BMP_temperature;BMP_pressure;BME280_temperature;BME280_humidity;BME280_pressure;Samples;Min_cycle;Max_cycle;Signal;HPM_P1;HPM_P2
2022/04/14 00:01:33;;;;;;;42.50;18.92;;;8.30;99.90;;;;;;4991670;28;20022;-78
2022/04/14 00:03:59;;;;;;;41.63;18.23;;;8.30;99.90;;;;;;4991086;28;20033;-78
2022/04/14 00:06:25;;;;;;;60.65;19.45;;;8.20;99.90;;;;;;4991020;28;20085;-79
2022/04/14 00:08:54;;;;;;;43.47;18.95;;;8.10;99.90;;;;;;4991759;28;20046;-78
2022/04/14 00:11:20;;;;;;;41.75;18.15;;;8.00;99.90;;;;;;4991521;28;20038;-79
2022/04/14 00:13:45;;;;;;;38.95;17.60;;;7.90;99.90;;;;;;4990925;28;20034;-78
2022/04/14 00:16:11;;;;;;;39.85;16.95;;;7.90;99.90;;;;;;4984957;28;20474;-79
2022/04/14 00:18:37;;;;;;;39.38;16.27;;;7.80;99.90;;;;;;4990918;28;20026;-79
2022/04/14 00:21:03;;;;;;;40.30;18.02;;;7.80;99.90;;;;;;4991136;28;20128;-79
2022/04/14 00:23:28;;;;;;;42.28;16.52;;;7.80;99.90;;;;;;4991489;28;20026;-79
2022/04/14 00:25:54;;;;;;;39.58;16.83;;;7.80;99.90;;;;;;4991382;28;20963;-78
2022/04/14 00:28:20;;;;;;;31.95;15.18;;;7.80;99.90;;;;;;4991083;28;20040;-78
2022/04/14 00:30:46;;;;;;;30.30;14.77;;;7.70;99.90;;;;;;5011476;22;20509;-76
2022/04/14 00:33:12;;;;;;;34.55;16.38;;;7.60;99.90;;;;;;4992479;28;20084;-76
2022/04/14 00:35:38;;;;;;;29.80;15.57;;;7.60;99.90;;;;;;4992285;28;20466;-76
2022/04/14 00:38:03;;;;;;;33.83;16.38;;;7.70;99.90;;;;;;4991512;28;20135;-77
2022/04/14 00:40:29;;;;;;;30.35;15.07;;;7.60;99.90;;;;;;4989752;28;20029;-75
2022/04/14 00:42:55;;;;;;;23.15;13.35;;;7.50;99.90;;;;;;4990920;28;20487;-76
2022/04/14 00:45:20;;;;;;;27.90;13.23;;;7.30;99.90;;;;;;4991199;28;20471;-76
2022/04/14 00:47:46;;;;;;;30.38;14.27;;;7.20;99.90;;;;;;4990460;28;20390;-76
2022/04/14 00:50:13;;;;;;;30.85;13.65;;;7.20;99.90;;;;;;4991092;28;20070;-76
2022/04/14 00:52:45;;;;;;;31.63;14.75;;;7.20;99.90;;;;;;4990985;28;20030;-76
2022/04/14 00:55:11;;;;;;;32.65;14.27;;;7.20;99.90;;;;;;4978860;28;20054;-76
2022/04/14 00:57:37;;;;;;;36.83;14.57;;;7.10;99.90;;;;;;4990682;28;20087;-76
2022/04/14 01:00:04;;;;;;;31.45;14.45;;;7.10;99.90;;;;;;4990066;28;20022;-76
2022/04/14 01:02:30;;;;;;;27.38;13.80;;;7.10;99.90;;;;;;4990462;28;20463;-75
2022/04/14 01:04:58;;;;;;;31.83;14.80;;;7.10;99.90;;;;;;4990372;28;20029;-76
2022/04/14 01:07:25;;;;;;;30.77;14.65;;;7.20;99.90;;;;;;4990253;28;20023;-76
2022/04/14 01:09:52;;;;;;;27.45;13.10;;;7.10;99.90;;;;;;4990203;28;20072;-76
2022/04/14 01:12:18;;;;;;;29.65;13.65;;;7.00;99.90;;;;;;4990214;28;20026;-76
2022/04/14 01:14:43;;;;;;;35.58;13.65;;;7.00;99.90;;;;;;4990395;28;20019;-76
2022/04/14 01:17:10;;;;;;;29.90;12.88;;;7.00;99.90;;;;;;4989338;28;20422;-76
2022/04/14 01:19:37;;;;;;;25.75;12.70;;;7.00;99.90;;;;;;4990604;28;20018;-76
2022/04/14 01:22:23;;;;;;;29.13;12.57;;;7.00;99.90;;;;;;4990562;28;20478;-76
2022/04/14 01:24:58;;;;;;;27.35;13.13;;;6.90;99.90;;;;;;4990749;28;20030;-76
2022/04/14 01:27:25;;;;;;;28.63;14.45;;;6.90;99.90;;;;;;4990698;28;20033;-76
2022/04/14 01:29:52;;;;;;;28.17;15.05;;;6.90;99.90;;;;;;5004407;22;20014;-78
2022/04/14 01:32:21;;;;;;;26.23;12.73;;;6.90;99.90;;;;;;5008141;28;20117;-78
2022/04/14 01:34:48;;;;;;;30.00;14.63;;;6.80;99.90;;;;;;5011055;28;20022;-78
2022/04/14 01:37:14;;;;;;;26.10;11.52;;;6.80;99.90;;;;;;5010101;28;20083;-79
2022/04/14 01:39:39;;;;;;;23.13;12.23;;;6.80;99.90;;;;;;5010503;28;20136;-78
2022/04/14 01:42:06;;;;;;;26.23;12.85;;;6.70;99.90;;;;;;5010241;28;20022;-78
2022/04/14 01:44:32;;;;;;;25.05;11.77;;;6.70;99.90;;;;;;5009994;28;20406;-78
2022/04/14 01:46:58;;;;;;;28.30;12.23;;;6.60;99.90;;;;;;5010022;28;20057;-78
2022/04/14 01:49:23;;;;;;;28.60;12.85;;;6.60;99.90;;;;;;5009516;28;20074;-78
2022/04/14 01:51:49;;;;;;;27.60;11.85;;;6.60;99.90;;;;;;5009401;28;20030;-78
2022/04/14 01:54:15;;;;;;;24.52;12.35;;;6.50;99.90;;;;;;5010183;28;20049;-78
2022/04/14 01:56:45;;;;;;;22.52;11.93;;;6.60;99.90;;;;;;5011719;28;20037;-78
2022/04/14 01:59:12;;;;;;;26.63;12.00;;;6.60;99.90;;;;;;5013617;28;20026;-78
2022/04/14 02:01:38;;;;;;;24.15;11.68;;;6.40;99.90;;;;;;5009365;28;20141;-78
2022/04/14 02:04:07;;;;;;;20.42;11.45;;;6.30;99.90;;;;;;5013081;28;20689;-78
2022/04/14 02:06:33;;;;;;;24.98;11.00;;;6.20;99.90;;;;;;5013031;28;20042;-79
2022/04/14 02:08:59;;;;;;;25.00;11.82;;;6.10;99.90;;;;;;5013252;28;20034;-78
2022/04/14 02:11:25;;;;;;;24.75;11.68;;;6.00;99.90;;;;;;5013537;28;20033;-78
2022/04/14 02:13:50;;;;;;;20.95;11.43;;;6.10;99.90;;;;;;5013329;28;20022;-78
2022/04/14 02:16:16;;;;;;;22.88;10.65;;;6.00;99.90;;;;;;5009258;28;20018;-78
2022/04/14 02:18:42;;;;;;;20.38;10.45;;;5.90;99.90;;;;;;5012073;28;20076;-78
2022/04/14 02:21:08;;;;;;;24.15;11.52;;;5.90;99.90;;;;;;5013202;28;20432;-78
2022/04/14 02:23:34;;;;;;;23.88;10.93;;;5.80;99.90;;;;;;5013174;28;20478;-78
2022/04/14 02:26:00;;;;;;;30.00;11.68;;;5.80;99.90;;;;;;5013559;28;20101;-78
2022/04/14 02:28:25;;;;;;;25.15;12.07;;;5.80;99.90;;;;;;5012783;28;20109;-78
2022/04/14 02:30:51;;;;;;;27.60;13.68;;;5.80;99.90;;;;;;5017408;22;20049;-76
2022/04/14 02:33:17;;;;;;;26.45;12.57;;;5.90;99.90;;;;;;4993416;28;20041;-76
2022/04/14 02:35:43;;;;;;;36.72;15.35;;;5.90;99.90;;;;;;4994114;28;20018;-76
2022/04/14 02:38:09;;;;;;;29.77;13.73;;;5.90;99.90;;;;;;4994186;28;20077;-76
2022/04/14 02:40:35;;;;;;;33.28;13.18;;;6.00;99.90;;;;;;4994223;28;20038;-76
2022/04/14 02:43:00;;;;;;;29.75;12.65;;;6.00;99.90;;;;;;4994423;28;20145;-76
2022/04/14 02:45:27;;;;;;;27.25;11.63;;;6.00;99.90;;;;;;4994403;28;20019;-76
2022/04/14 02:47:54;;;;;;;31.40;12.32;;;6.00;99.90;;;;;;4993721;28;20450;-76
2022/04/14 02:50:20;;;;;;;25.88;11.55;;;5.90;99.90;;;;;;5000743;28;20390;-76
2022/04/14 02:52:47;;;;;;;26.20;11.68;;;5.90;99.90;;;;;;4994381;28;20415;-76
2022/04/14 02:55:13;;;;;;;30.73;10.70;;;5.90;99.90;;;;;;4993863;28;20022;-76
2022/04/14 02:57:39;;;;;;;24.55;11.55;;;5.80;99.90;;;;;;4993615;28;20069;-76
2022/04/14 03:00:09;;;;;;;24.27;10.30;;;5.80;99.90;;;;;;4993710;28;20117;-76
2022/04/14 03:02:35;;;;;;;26.05;10.90;;;5.80;99.90;;;;;;4993151;28;20030;-76
2022/04/14 03:05:02;;;;;;;22.33;10.43;;;5.80;99.90;;;;;;4993360;28;20058;-76
2022/04/14 03:07:28;;;;;;;25.05;9.95;;;5.80;99.90;;;;;;4993169;28;20405;-76
2022/04/14 03:09:54;;;;;;;23.70;10.70;;;5.60;99.90;;;;;;4993641;28;20053;-76
2022/04/14 03:12:20;;;;;;;26.52;10.95;;;5.60;99.90;;;;;;4993825;28;20026;-76
2022/04/14 03:14:49;;;;;;;26.00;10.45;;;5.70;99.90;;;;;;4993312;28;20033;-76
2022/04/14 03:17:15;;;;;;;24.50;10.88;;;5.60;99.90;;;;;;4992401;28;20035;-76
2022/04/14 03:19:41;;;;;;;25.08;10.27;;;5.60;99.90;;;;;;4993601;28;20018;-76
2022/04/14 03:22:07;;;;;;;24.65;11.27;;;5.70;99.90;;;;;;5000172;28;20029;-76
2022/04/14 03:24:32;;;;;;;30.60;12.55;;;5.90;99.90;;;;;;4993592;28;20037;-76
2022/04/14 03:26:58;;;;;;;30.30;12.10;;;6.00;99.90;;;;;;4993336;28;20035;-76
2022/04/14 03:29:24;;;;;;;33.25;11.90;;;6.20;99.90;;;;;;5008057;28;20101;-76
2022/04/14 03:31:49;;;;;;;31.80;12.00;;;6.30;99.90;;;;;;5009487;23;20053;-77
2022/04/14 03:34:15;;;;;;;33.38;12.05;;;6.30;99.90;;;;;;4993427;28;20030;-77
2022/04/14 03:36:41;;;;;;;42.70;14.50;;;6.30;99.90;;;;;;4991637;28;20026;-77
2022/04/14 03:39:07;;;;;;;45.08;15.27;;;6.50;99.90;;;;;;4992264;28;20037;-77
2022/04/14 03:41:33;;;;;;;38.10;13.82;;;6.50;99.90;;;;;;4992064;28;20053;-77
2022/04/14 03:43:58;;;;;;;35.63;13.15;;;6.70;99.90;;;;;;4976100;28;20402;-78
2022/04/14 03:46:24;;;;;;;29.83;12.13;;;6.70;99.90;;;;;;4970084;28;20026;-77
2022/04/14 03:48:50;;;;;;;41.17;13.48;;;6.80;99.90;;;;;;4969957;28;20126;-77
2022/04/14 03:51:16;;;;;;;50.35;14.30;;;6.90;99.90;;;;;;4970060;28;20031;-78
2022/04/14 03:53:43;;;;;;;88.60;17.95;;;7.00;99.90;;;;;;4971980;28;20037;-77
2022/04/14 03:56:09;;;;;;;55.50;14.52;;;7.40;99.90;;;;;;4985441;28;20030;-77
2022/04/14 03:58:35;;;;;;;148.50;18.70;;;7.50;99.90;;;;;;4981010;28;20030;-78
2022/04/14 04:01:01;;;;;;;190.25;21.45;;;7.70;99.90;;;;;;4970178;28;20364;-79
2022/04/14 04:03:26;;;;;;;176.02;19.35;;;8.30;99.90;;;;;;4966892;28;20106;-78
2022/04/14 04:05:52;;;;;;;215.85;22.95;;;8.60;99.90;;;;;;4970416;28;20115;-78
2022/04/14 04:08:18;;;;;;;212.85;20.40;;;8.70;99.90;;;;;;4973374;28;20062;-78
2022/04/14 04:10:44;;;;;;;136.85;15.85;;;8.90;99.90;;;;;;4978754;28;20038;-78
2022/04/14 04:13:11;;;;;;;223.40;17.70;;;8.90;99.90;;;;;;4976141;28;20030;-78
2022/04/14 04:15:36;;;;;;;176.07;17.00;;;8.90;99.90;;;;;;4989856;28;20026;-78
2022/04/14 04:18:04;;;;;;;121.22;17.20;;;9.00;99.90;;;;;;4991337;28;20467;-78
2022/04/14 04:20:31;;;;;;;127.88;16.25;;;8.90;99.90;;;;;;4983222;28;20057;-78
2022/04/14 04:22:57;;;;;;;118.78;15.25;;;9.00;99.90;;;;;;4991496;28;20565;-78
2022/04/14 04:25:22;;;;;;;93.35;15.13;;;8.90;99.90;;;;;;4991000;28;20038;-78
2022/04/14 04:27:48;;;;;;;95.32;14.55;;;9.00;99.90;;;;;;4990876;28;20457;-78
2022/04/14 04:30:14;;;;;;;214.82;19.58;;;9.10;99.90;;;;;;4988842;23;20082;-76
2022/04/14 04:32:40;;;;;;;215.23;18.52;;;9.00;99.90;;;;;;4992898;28;20073;-76
2022/04/14 04:35:07;;;;;;;89.78;14.48;;;8.90;99.90;;;;;;4991588;28;20022;-76
2022/04/14 04:37:33;;;;;;;84.28;15.90;;;8.90;99.90;;;;;;4990855;28;20022;-76
2022/04/14 04:39:58;;;;;;;102.82;14.38;;;8.80;99.90;;;;;;4990620;28;20033;-76
2022/04/14 04:42:24;;;;;;;76.38;15.05;;;8.80;99.90;;;;;;4990420;28;20348;-76
2022/04/14 04:44:50;;;;;;;74.47;13.02;;;8.80;99.90;;;;;;4991157;28;20019;-76
2022/04/14 04:47:16;;;;;;;81.95;13.45;;;8.80;99.90;;;;;;4990357;28;20010;-76
2022/04/14 04:49:42;;;;;;;151.80;14.73;;;8.80;99.90;;;;;;4990029;28;20030;-76
2022/04/14 04:52:09;;;;;;;53.58;11.95;;;8.80;99.90;;;;;;4990638;28;20018;-77
2022/04/14 04:54:34;;;;;;;81.80;14.10;;;8.80;99.90;;;;;;4987420;28;20025;-76
2022/04/14 04:57:00;;;;;;;83.82;15.95;;;8.90;99.90;;;;;;4988431;28;20426;-77
2022/04/14 04:59:26;;;;;;;83.53;15.23;;;8.70;99.90;;;;;;4989133;28;20054;-76
2022/04/14 05:01:52;;;;;;;53.50;15.05;;;8.60;99.90;;;;;;4987259;28;20015;-76
2022/04/14 05:04:17;;;;;;;85.47;14.40;;;8.40;99.90;;;;;;4988674;28;20054;-76
2022/04/14 05:06:43;;;;;;;34.00;12.48;;;8.40;99.90;;;;;;4988826;28;20493;-76
2022/04/14 05:09:09;;;;;;;60.38;13.60;;;8.30;99.90;;;;;;4989876;28;20041;-76
2022/04/14 05:11:35;;;;;;;31.48;12.20;;;8.30;99.90;;;;;;4989951;28;20022;-77
2022/04/14 05:14:01;;;;;;;52.38;13.50;;;8.30;99.90;;;;;;4990734;28;20027;-76
2022/04/14 05:16:27;;;;;;;68.00;13.80;;;8.20;99.90;;;;;;4989087;28;20052;-76
2022/04/14 05:18:53;;;;;;;49.17;15.05;;;8.20;99.90;;;;;;4990335;28;20454;-76
2022/04/14 05:21:19;;;;;;;63.65;13.30;;;8.10;99.90;;;;;;4990903;28;20042;-76
2022/04/14 05:23:45;;;;;;;98.65;13.70;;;8.10;99.90;;;;;;4988986;28;20029;-76
2022/04/14 05:26:10;;;;;;;107.38;13.82;;;8.10;99.90;;;;;;4990250;28;20486;-75
2022/04/14 05:28:36;;;;;;;41.65;12.73;;;8.10;99.90;;;;;;4990590;28;20084;-76
2022/04/14 05:31:02;;;;;;;81.50;14.38;;;8.00;99.90;;;;;;4991258;28;20041;-76
2022/04/14 05:33:28;;;;;;;75.13;15.43;;;8.00;99.90;;;;;;4993625;28;20074;-75
2022/04/14 05:35:54;;;;;;;87.07;15.88;;;7.80;99.90;;;;;;4994147;28;20380;-75
2022/04/14 05:38:20;;;;;;;64.75;15.60;;;7.60;99.90;;;;;;4994257;28;20017;-76
2022/04/14 05:40:46;;;;;;;44.75;16.42;;;7.50;99.90;;;;;;4993840;28;20182;-76
2022/04/14 05:43:18;;;;;;;39.42;14.48;;;7.30;99.90;;;;;;4993933;28;20092;-76
2022/04/14 05:45:44;;;;;;;51.70;17.15;;;7.20;99.90;;;;;;4994096;28;20022;-76
2022/04/14 05:48:19;;;;;;;51.45;18.05;;;7.10;99.90;;;;;;4993625;28;20042;-76
2022/04/14 05:50:46;;;;;;;57.70;16.55;;;7.10;99.90;;;;;;4993258;28;20593;-76
2022/04/14 05:53:13;;;;;;;48.38;17.05;;;7.00;99.90;;;;;;4993421;28;20085;-76
2022/04/14 05:55:40;;;;;;;56.75;17.55;;;7.00;99.90;;;;;;4994237;28;20022;-76
2022/04/14 05:58:07;;;;;;;45.40;17.30;;;7.10;99.90;;;;;;4993637;28;20080;-76
2022/04/14 06:00:34;;;;;;;48.83;19.20;;;7.10;99.90;;;;;;4993716;28;20467;-76
2022/04/14 06:03:00;;;;;;;54.15;18.70;;;7.10;99.90;;;;;;4993663;28;20022;-75
2022/04/14 06:05:30;;;;;;;40.30;17.65;;;7.20;99.90;;;;;;4992278;28;20399;-76
2022/04/14 06:07:56;;;;;;;38.63;17.02;;;7.30;99.90;;;;;;4993451;28;20031;-75
2022/04/14 06:10:23;;;;;;;47.25;17.17;;;7.30;99.90;;;;;;4993740;28;20030;-76
2022/04/14 06:12:49;;;;;;;41.83;17.10;;;7.40;99.90;;;;;;4993286;28;20018;-76
2022/04/14 06:15:16;;;;;;;46.08;17.35;;;7.40;99.90;;;;;;4992091;28;20803;-76
2022/04/14 06:17:42;;;;;;;45.88;18.75;;;7.50;99.90;;;;;;4993484;28;20014;-76
2022/04/14 06:20:09;;;;;;;36.70;16.23;;;7.60;99.90;;;;;;4986729;28;20018;-76
2022/04/14 06:22:41;;;;;;;32.28;15.82;;;7.70;99.90;;;;;;4992962;28;20510;-76
2022/04/14 06:25:12;;;;;;;31.55;14.75;;;7.80;99.90;;;;;;4992852;28;20034;-76
2022/04/14 06:27:42;;;;;;;32.55;14.55;;;7.90;99.90;;;;;;4993115;28;20097;-75
2022/04/14 06:30:09;;;;;;;33.58;12.88;;;8.00;99.90;;;;;;4999219;23;20049;-77
2022/04/14 06:32:35;;;;;;;42.85;12.27;;;8.10;99.90;;;;;;4993538;28;20035;-78
2022/04/14 06:35:08;;;;;;;35.50;9.43;;;8.20;99.90;;;;;;4994436;28;20026;-77
2022/04/14 06:37:34;;;;;;;50.65;8.43;;;8.20;99.90;;;;;;4993862;28;20201;-78
2022/04/14 06:40:01;;;;;;;23.58;7.15;;;8.20;99.90;;;;;;4993199;28;20025;-77
2022/04/14 06:42:26;;;;;;;15.82;7.13;;;8.20;99.90;;;;;;4992801;28;20113;-78
2022/04/14 06:44:58;;;;;;;55.28;9.30;;;8.30;99.90;;;;;;4992335;28;20109;-77
2022/04/14 06:47:23;;;;;;;27.55;6.88;;;8.30;99.90;;;;;;4979621;28;20029;-78
2022/04/14 06:49:49;;;;;;;12.10;5.10;;;8.40;99.90;;;;;;4992795;28;20038;-78
2022/04/14 06:52:17;;;;;;;16.70;6.32;;;8.50;99.90;;;;;;4992851;28;20057;-77
2022/04/14 06:54:43;;;;;;;12.13;5.75;;;8.50;99.90;;;;;;4993379;28;20014;-78
2022/04/14 06:57:09;;;;;;;9.98;5.43;;;8.50;99.90;;;;;;4992996;28;20022;-78
2022/04/14 06:59:35;;;;;;;14.13;6.53;;;8.50;99.90;;;;;;4991769;28;20021;-77
2022/04/14 07:02:00;;;;;;;19.90;7.68;;;8.50;99.90;;;;;;4980421;28;20073;-78
2022/04/14 07:04:27;;;;;;;12.77;6.20;;;8.60;99.90;;;;;;4975481;28;20030;-77
2022/04/14 07:06:54;;;;;;;18.90;9.10;;;8.70;99.90;;;;;;4991338;28;20022;-78
2022/04/14 07:09:20;;;;;;;21.75;11.65;;;8.80;99.90;;;;;;4993101;28;20029;-77
2022/04/14 07:11:46;;;;;;;21.65;11.65;;;9.00;99.90;;;;;;4992586;28;20069;-77
2022/04/14 07:14:14;;;;;;;38.40;11.73;;;9.20;99.90;;;;;;5007407;28;20026;-77
2022/04/14 07:16:41;;;;;;;17.88;10.90;;;9.30;99.90;;;;;;4992144;28;20044;-77
2022/04/14 07:19:06;;;;;;;19.65;10.50;;;9.60;99.90;;;;;;4992214;28;20470;-77
2022/04/14 07:21:32;;;;;;;36.83;10.00;;;9.70;99.90;;;;;;4992483;28;20101;-77
2022/04/14 07:23:58;;;;;;;33.40;8.50;;;9.60;99.90;;;;;;5007638;28;20038;-77
2022/04/14 07:26:24;;;;;;;80.90;9.50;;;9.90;99.90;;;;;;4992494;28;20101;-77
2022/04/14 07:28:49;;;;;;;17.40;7.80;;;9.90;99.90;;;;;;5007147;28;20034;-77
2022/04/14 07:31:15;;;;;;;16.27;5.97;;;9.90;99.90;;;;;;4985819;28;20487;-77
2022/04/14 07:33:41;;;;;;;16.98;6.32;;;10.00;99.90;;;;;;4992461;28;20384;-77
2022/04/14 07:36:07;;;;;;;10.38;5.43;;;10.30;99.90;;;;;;4991991;28;20110;-77
2022/04/14 07:38:33;;;;;;;15.85;5.97;;;10.50;99.90;;;;;;4991234;28;20387;-77
2022/04/14 07:41:00;;;;;;;22.98;6.57;;;10.80;99.90;;;;;;4982693;28;20395;-77
2022/04/14 07:43:26;;;;;;;11.07;6.78;;;11.00;99.90;;;;;;4979994;28;20023;-77
2022/04/14 07:45:52;;;;;;;12.45;5.93;;;11.20;99.90;;;;;;4981148;28;20033;-78
2022/04/14 07:48:21;;;;;;;9.82;5.43;;;11.20;99.90;;;;;;4989765;28;20027;-78
2022/04/14 07:50:48;;;;;;;11.45;6.10;;;11.60;99.90;;;;;;4991650;28;20034;-77
2022/04/14 07:53:13;;;;;;;11.52;6.13;;;11.80;99.90;;;;;;4990979;28;20023;-77
2022/04/14 07:55:39;;;;;;;8.55;5.65;;;12.00;99.90;;;;;;4991967;28;20026;-78
2022/04/14 07:58:09;;;;;;;11.80;6.30;;;12.30;99.90;;;;;;4990519;28;20033;-78
2022/04/14 08:00:37;;;;;;;12.77;7.20;;;12.60;99.90;;;;;;5000364;22;20042;-76
2022/04/14 08:03:04;;;;;;;13.63;8.00;;;12.70;99.90;;;;;;4975623;28;20165;-76
2022/04/14 08:05:37;;;;;;;15.20;9.25;;;12.70;99.90;;;;;;4978732;28;20498;-76
2022/04/14 08:08:11;;;;;;;16.27;9.18;;;12.90;99.90;;;;;;4987166;28;20030;-76
2022/04/14 08:10:37;;;;;;;17.77;9.60;;;13.30;99.90;;;;;;4971430;28;20022;-76
2022/04/14 08:13:03;;;;;;;15.23;8.45;;;13.70;99.90;;;;;;4972766;28;20038;-76
2022/04/14 08:15:30;;;;;;;12.85;8.65;;;14.00;99.90;;;;;;4975484;28;20018;-77
2022/04/14 08:17:57;;;;;;;16.33;9.30;;;14.50;99.90;;;;;;4971987;28;20029;-77
2022/04/14 08:20:23;;;;;;;17.23;9.75;;;14.40;99.90;;;;;;4970196;28;20549;-74
2022/04/14 08:22:54;;;;;;;15.88;8.90;;;14.40;99.90;;;;;;4970321;28;20131;-81
2022/04/14 08:25:22;;;;;;;14.70;9.07;;;14.20;99.90;;;;;;4970579;28;20569;-76
2022/04/14 08:27:49;;;;;;;17.83;9.88;;;14.30;99.90;;;;;;4971417;28;20046;-76
2022/04/14 08:30:17;;;;;;;16.80;9.07;;;14.50;99.90;;;;;;4971463;28;20395;-76
2022/04/14 08:32:46;;;;;;;18.83;8.93;;;14.40;99.90;;;;;;4979252;28;20357;-77
2022/04/14 08:35:13;;;;;;;18.63;9.82;;;14.30;99.90;;;;;;4973089;28;20034;-76
2022/04/14 08:37:43;;;;;;;16.58;9.68;;;14.40;99.90;;;;;;4972991;28;20022;-76
2022/04/14 08:40:11;;;;;;;15.65;8.70;;;14.00;99.90;;;;;;4972758;28;20015;-74
2022/04/14 08:42:39;;;;;;;15.32;7.90;;;14.20;99.90;;;;;;4971438;28;20438;-77
2022/04/14 08:45:09;;;;;;;14.77;8.93;;;14.60;99.90;;;;;;4973369;28;20026;-75
2022/04/14 08:47:36;;;;;;;13.70;8.25;;;14.50;99.90;;;;;;4977139;28;20050;-75
2022/04/14 08:50:04;;;;;;;13.95;7.47;;;14.90;99.90;;;;;;4972767;28;20035;-75
2022/04/14 08:52:36;;;;;;;16.73;8.13;;;15.00;99.90;;;;;;4972112;28;20471;-76
2022/04/14 08:55:04;;;;;;;12.27;8.18;;;15.00;99.90;;;;;;4972233;28;20031;-75
2022/04/14 08:57:31;;;;;;;14.88;7.72;;;15.10;99.90;;;;;;4972423;28;20106;-76
2022/04/14 09:02:32;;;;;;;13.18;7.68;;;15.20;99.90;;;;;;5027671;28;20494;-77
2022/04/14 09:04:58;;;;;;;14.55;7.70;;;15.20;99.90;;;;;;5030554;28;20079;-77
2022/04/14 09:07:25;;;;;;;12.32;6.72;;;15.40;99.90;;;;;;5024251;28;20109;-78
2022/04/14 09:09:51;;;;;;;14.45;7.40;;;15.90;99.90;;;;;;5015246;28;20470;-78
2022/04/14 09:12:18;;;;;;;13.10;6.93;;;16.50;98.30;;;;;;5015450;28;20112;-78
2022/04/14 09:14:45;;;;;;;13.32;6.95;;;16.60;98.60;;;;;;5014099;28;20030;-77
2022/04/14 09:17:10;;;;;;;11.50;6.60;;;17.30;97.90;;;;;;5014472;28;20478;-78
2022/04/14 09:19:37;;;;;;;10.00;6.35;;;18.20;94.00;;;;;;5014609;28;20030;-77
2022/04/14 09:22:09;;;;;;;11.00;6.00;;;18.90;91.50;;;;;;5015194;28;20025;-79
2022/04/14 09:24:53;;;;;;;9.65;5.43;;;19.40;91.70;;;;;;5008924;28;20018;-78
2022/04/14 09:27:29;;;;;;;10.43;5.88;;;19.90;87.20;;;;;;5008825;28;20022;-77
2022/04/14 09:29:56;;;;;;;9.98;5.93;;;19.50;88.60;;;;;;5015334;28;20038;-77
2022/04/14 09:32:44;;;;;;;10.75;6.18;;;19.70;84.90;;;;;;5014746;28;20021;-77
2022/04/14 09:35:21;;;;;;;7.97;4.65;;;20.10;85.80;;;;;;5015398;28;20445;-77
2022/04/14 09:38:08;;;;;;;8.98;5.45;;;20.90;83.80;;;;;;5014912;28;20022;-78
2022/04/14 09:40:34;;;;;;;10.82;5.50;;;21.70;74.20;;;;;;5013654;28;20574;-78
2022/04/14 09:43:01;;;;;;;9.93;6.07;;;21.90;74.10;;;;;;5014778;28;20022;-78
2022/04/14 09:45:29;;;;;;;11.40;5.65;;;23.00;68.20;;;;;;5007892;28;20484;-78
2022/04/14 09:48:10;;;;;;;12.63;5.97;;;23.30;66.30;;;;;;5014671;28;20026;-78
2022/04/14 09:50:40;;;;;;;9.10;4.35;;;24.60;65.60;;;;;;5014822;28;20025;-78
2022/04/14 09:53:12;;;;;;;8.70;4.80;;;25.70;58.50;;;;;;5014789;28;20017;-78
2022/04/14 09:55:39;;;;;;;11.40;4.25;;;25.30;58.90;;;;;;5014891;28;20022;-78
2022/04/14 09:58:08;;;;;;;12.05;3.90;;;25.90;57.10;;;;;;5014555;28;20109;-78
2022/04/14 10:00:43;;;;;;;7.93;2.97;;;26.60;51.60;;;;;;5033259;23;20353;-73
2022/04/14 10:03:17;;;;;;;9.60;3.53;;;26.50;52.30;;;;;;5066102;28;20400;-77
2022/04/14 10:05:45;;;;;;;12.98;3.38;;;26.50;47.70;;;;;;5073310;28;20008;-78
2022/04/14 10:08:13;;;;;;;5.70;2.25;;;26.90;48.30;;;;;;5042818;28;20021;-76
2022/04/14 10:10:40;;;;;;;7.38;2.70;;;27.10;45.90;;;;;;5053066;28;20039;-77
2022/04/14 10:13:08;;;;;;;7.20;3.30;;;27.20;49.50;;;;;;5053054;28;20025;-76
2022/04/14 10:15:39;;;;;;;7.35;2.47;;;27.80;46.60;;;;;;5049074;28;20029;-76
2022/04/14 10:18:13;;;;;;;6.20;2.08;;;28.10;43.60;;;;;;5051246;28;20044;-76
2022/04/14 10:20:41;;;;;;;7.90;2.20;;;28.10;43.40;;;;;;5052661;28;20021;-76
2022/04/14 10:23:11;;;;;;;5.85;2.22;;;28.00;44.10;;;;;;5052573;28;20025;-76
2022/04/14 10:25:38;;;;;;;3.13;1.77;;;28.60;43.10;;;;;;5053141;28;20350;-77
2022/04/14 10:28:15;;;;;;;5.38;1.98;;;28.80;41.10;;;;;;5049779;28;20268;-77
2022/04/14 10:30:45;;;;;;;3.28;1.63;;;28.40;40.80;;;;;;5050138;28;20045;-76
2022/04/14 10:33:12;;;;;;;6.90;1.60;;;29.20;40.60;;;;;;5051275;28;20021;-76
2022/04/14 10:35:38;;;;;;;5.97;1.67;;;29.30;37.50;;;;;;5052991;28;20551;-77
2022/04/14 10:38:07;;;;;;;4.13;1.10;;;28.50;39.90;;;;;;5052558;28;20017;-77
2022/04/14 10:40:34;;;;;;;2.42;0.85;;;28.70;37.90;;;;;;5052467;28;20025;-77
2022/04/14 10:43:01;;;;;;;2.88;0.60;;;29.30;37.20;;;;;;5052348;28;20481;-78
2022/04/14 10:45:27;;;;;;;3.78;0.98;;;28.60;36.10;;;;;;5050924;28;20017;-78
2022/04/14 10:47:57;;;;;;;1.92;0.88;;;28.30;37.60;;;;;;5050607;28;20051;-78
2022/04/14 10:50:31;;;;;;;0.47;0.15;;;28.30;36.40;;;;;;5052207;28;20045;-77
2022/04/14 10:53:18;;;;;;;1.23;0.40;;;28.60;32.60;;;;;;5052216;28;20021;-77
2022/04/14 10:55:46;;;;;;;3.53;0.40;;;28.50;36.10;;;;;;5043499;28;20025;-77
2022/04/14 10:58:36;;;;;;;0.75;0.30;;;28.30;36.10;;;;;;5052618;28;20117;-78
2022/04/14 11:01:02;;;;;;;1.42;0.22;;;27.70;34.30;;;;;;5039756;23;20040;-79
2022/04/14 11:03:45;;;;;;;0.55;0.20;;;27.40;35.10;;;;;;5032788;28;21063;-79
2022/04/14 11:06:30;;;;;;;0.30;0.10;;;28.50;35.70;;;;;;5031816;28;20009;-78
2022/04/14 11:08:56;;;;;;;0.20;0.10;;;28.90;32.40;;;;;;5012243;28;20500;-78
2022/04/14 11:11:21;;;;;;;0.10;0.05;;;29.90;31.00;;;;;;5013509;28;20513;-79
2022/04/14 11:13:50;;;;;;;0.60;0.10;;;30.20;30.00;;;;;;5013407;28;20022;-78
2022/04/14 11:16:45;;;;;;;0.47;0.08;;;29.10;31.00;;;;;;5018829;28;20018;-80
2022/04/14 11:19:24;;;;;;;0.30;0.03;;;29.70;30.40;;;;;;5018935;28;20030;-79
2022/04/14 11:22:02;;;;;;;0.40;0.25;;;29.80;30.00;;;;;;5007169;28;20052;-79
2022/04/14 11:24:34;;;;;;;0.73;0.10;;;29.30;32.50;;;;;;5006213;28;20040;-79
2022/04/14 11:27:26;;;;;;;1.13;0.13;;;28.60;31.80;;;;;;5013318;28;20018;-78
2022/04/14 11:29:57;;;;;;;1.30;0.10;;;27.80;33.40;;;;;;5012384;28;20045;-79
2022/04/14 11:32:36;;;;;;;;;;;26.40;36.00;;;;;;5013463;28;20014;-79
2022/04/14 11:35:18;;;;;;;0.65;0.13;;;27.10;36.70;;;;;;5013230;28;20312;-78
2022/04/14 11:37:46;;;;;;;0.73;0.17;;;27.60;35.60;;;;;;5013098;28;20020;-79
2022/04/14 11:40:22;;;;;;;0.70;0.10;;;28.10;32.10;;;;;;5011919;28;20022;-78
2022/04/14 11:42:59;;;;;;;2.30;0.08;;;29.20;30.50;;;;;;5007309;28;20026;-79
2022/04/14 11:45:26;;;;;;;0.75;0.10;;;29.70;29.70;;;;;;5012537;28;20045;-78
2022/04/14 11:47:59;;;;;;;0.85;0.10;;;29.80;30.40;;;;;;5012288;28;20500;-80
2022/04/14 11:50:29;;;;;;;0.93;0.10;;;29.20;30.70;;;;;;5012589;28;20077;-78
2022/04/14 11:53:03;;;;;;;0.55;0.10;;;29.30;31.40;;;;;;5012765;28;20036;-78
2022/04/14 11:55:40;;;;;;;0.50;0.03;;;30.30;32.60;;;;;;5006696;28;20445;-78
2022/04/14 11:58:06;;;;;;;0.20;0.10;;;31.80;29.90;;;;;;5005589;28;20048;-78
2022/04/14 12:00:44;;;;;;;0.50;0.03;;;31.60;28.40;;;;;;5023698;23;20046;-76
2022/04/14 12:03:10;;;;;;;0.82;0.10;;;32.00;30.30;;;;;;4990332;28;20033;-76
2022/04/14 12:05:36;;;;;;;1.70;0.10;;;31.60;28.20;;;;;;4992445;28;20022;-77
2022/04/14 12:08:09;;;;;;;1.83;0.20;;;30.90;29.90;;;;;;5010693;28;20101;-77
2022/04/14 12:10:35;;;;;;;1.85;0.10;;;31.10;29.90;;;;;;5010969;28;20030;-75
2022/04/14 12:13:11;;;;;;;0.13;0.13;;;30.90;29.50;;;;;;5011163;28;20437;-76
2022/04/14 12:15:37;;;;;;;1.95;0.20;;;31.50;28.30;;;;;;5009931;28;20393;-77
2022/04/14 12:18:12;;;;;;;0.57;0.28;;;31.00;28.50;;;;;;5011260;28;20363;-75
2022/04/14 12:20:40;;;;;;;1.08;0.15;;;31.60;28.50;;;;;;5010885;28;20390;-77
2022/04/14 12:23:10;;;;;;;1.45;0.30;;;31.40;29.50;;;;;;5011184;28;20072;-75
2022/04/14 12:25:37;;;;;;;1.13;0.03;;;32.30;27.80;;;;;;5011461;28;20025;-77
2022/04/14 12:28:04;;;;;;;0.88;0.32;;;32.30;28.20;;;;;;5011455;28;20405;-76
2022/04/14 12:30:31;;;;;;;0.50;0.20;;;32.40;29.90;;;;;;5010209;28;20073;-76
2022/04/14 12:33:05;;;;;;;0.93;0.10;;;31.90;30.80;;;;;;5008102;28;20064;-76
2022/04/14 12:35:42;;;;;;;0.98;0.10;;;31.80;29.60;;;;;;5008178;28;20080;-75
2022/04/14 12:38:14;;;;;;;0.30;0.10;;;32.30;28.80;;;;;;4995872;28;20112;-77
2022/04/14 12:41:00;;;;;;;1.48;0.20;;;31.50;29.50;;;;;;5007682;28;20108;-77
2022/04/14 12:43:31;;;;;;;4.13;0.50;;;31.00;29.90;;;;;;5010378;28;20047;-76
2022/04/14 12:45:57;;;;;;;0.88;0.30;;;31.40;30.00;;;;;;5010338;28;20148;-76
2022/04/14 12:48:37;;;;;;;1.10;0.20;;;32.10;30.00;;;;;;5010369;28;20168;-76